createdAt,value
2018-09-13T00:02:14.196Z,93.70
2018-09-13T00:04:42.341Z,93.80
2018-09-13T00:07:10.461Z,94.20
2018-09-13T00:09:38.568Z,94.50
2018-09-13T00:12:06.783Z,94.10
2018-09-13T00:14:34.949Z,94.10
2018-09-13T00:17:04.135Z,94.10
2018-09-13T00:19:33.344Z,94.80
2018-09-13T00:22:01.528Z,94.60
2018-09-13T00:24:29.684Z,95.20
2018-09-13T00:26:57.880Z,94.90
2018-09-13T00:29:26.035Z,94.60
2018-09-13T00:31:54.219Z,94.30
2018-09-13T00:34:22.373Z,94.30
2018-09-13T00:36:50.561Z,94.90
2018-09-13T00:39:18.742Z,94.90
2018-09-13T00:41:46.968Z,94.80
2018-09-13T00:44:15.071Z,94.60
2018-09-13T00:46:43.252Z,94.70
2018-09-13T00:49:11.439Z,95.00
2018-09-13T00:51:39.621Z,94.20
2018-09-13T00:54:07.749Z,94.10
2018-09-13T00:56:35.953Z,94.60
2018-09-13T00:59:04.080Z,94.20
2018-09-13T01:01:32.208Z,94.10
2018-09-13T01:04:00.365Z,94.10
2018-09-13T01:06:29.592Z,93.60
2018-09-13T01:08:58.776Z,93.70
2018-09-13T01:11:26.936Z,94.10
2018-09-13T01:13:55.071Z,93.30
2018-09-13T01:16:23.204Z,93.70
2018-09-13T01:18:51.370Z,93.50
2018-09-13T01:21:19.624Z,93.50
2018-09-13T01:23:47.816Z,93.50
2018-09-13T01:26:15.990Z,93.70
2018-09-13T01:28:44.169Z,93.40
2018-09-13T01:31:12.343Z,93.20
2018-09-13T01:33:41.545Z,92.10
2018-09-13T01:36:10.793Z,90.60
2018-09-13T01:38:38.933Z,90.60
2018-09-13T01:41:07.071Z,90.90
2018-09-13T01:43:35.256Z,90.60
2018-09-13T01:46:03.410Z,90.80
2018-09-13T01:48:31.600Z,90.10
2018-09-13T01:50:59.760Z,90.30
2018-09-13T01:53:28.982Z,90.30
2018-09-13T01:55:57.098Z,90.20
2018-09-13T01:58:26.238Z,89.40
2018-09-13T02:00:54.750Z,90.10
2018-09-13T02:03:23.148Z,89.60
2018-09-13T02:05:51.262Z,89.70
2018-09-13T02:08:19.436Z,90.00
2018-09-13T02:10:47.608Z,90.10
2018-09-13T02:13:15.792Z,90.70
2018-09-13T02:15:44.986Z,91.30
2018-09-13T02:18:13.160Z,91.50
2018-09-13T02:20:41.336Z,91.20
2018-09-13T02:23:09.513Z,90.90
2018-09-13T02:25:39.739Z,90.50
2018-09-13T02:28:07.905Z,90.40
2018-09-13T02:30:36.070Z,90.60
2018-09-13T02:33:04.185Z,90.10
2018-09-13T02:35:33.344Z,90.10
2018-09-13T02:38:01.689Z,90.50
2018-09-13T02:40:29.902Z,90.40
2018-09-13T02:42:58.069Z,90.10
2018-09-13T02:45:26.300Z,90.00
2018-09-13T02:47:54.441Z,90.10
2018-09-13T02:50:22.584Z,91.40
2018-09-13T02:52:51.823Z,91.20
2018-09-13T02:55:19.972Z,91.30
2018-09-13T02:57:48.132Z,91.30
2018-09-13T03:00:16.315Z,91.70
2018-09-13T03:02:44.425Z,92.10
2018-09-13T03:05:13.619Z,92.10
2018-09-13T03:07:42.773Z,92.40
2018-09-13T03:10:10.972Z,93.80
2018-09-13T03:12:39.142Z,93.90
2018-09-13T03:15:07.760Z,93.50
2018-09-13T03:17:35.997Z,93.50
2018-09-13T03:20:04.185Z,92.40
2018-09-13T03:22:32.350Z,91.50
2018-09-13T03:25:00.535Z,91.50
2018-09-13T03:27:28.680Z,91.30
2018-09-13T03:29:56.873Z,91.00
2018-09-13T03:32:25.051Z,90.60
2018-09-13T03:34:53.220Z,90.50
2018-09-13T03:37:21.388Z,90.20
2018-09-13T03:39:49.573Z,89.80
2018-09-13T03:42:17.740Z,90.00
2018-09-13T03:44:45.918Z,90.10
2018-09-13T03:47:15.117Z,90.20
2018-09-13T03:49:43.297Z,91.00
2018-09-13T03:52:11.410Z,90.80
2018-09-13T03:54:39.525Z,90.80
2018-09-13T03:57:07.703Z,90.70
2018-09-13T03:59:35.889Z,90.40
2018-09-13T04:02:04.044Z,90.50
2018-09-13T04:04:32.249Z,91.20
2018-09-13T04:07:00.397Z,90.80
2018-09-13T04:09:28.578Z,91.20
2018-09-13T04:11:56.732Z,90.90
2018-09-13T04:14:24.915Z,91.00
2018-09-13T04:16:53.084Z,90.20
2018-09-13T04:19:21.269Z,89.90
2018-09-13T04:21:49.460Z,90.20
2018-09-13T04:24:17.585Z,90.80
2018-09-13T04:26:47.395Z,91.60
2018-09-13T04:29:15.607Z,91.40
2018-09-13T04:31:43.729Z,90.50
2018-09-13T04:34:11.857Z,89.20
2018-09-13T04:36:39.999Z,87.00
2018-09-13T04:39:08.842Z,87.10
2018-09-13T04:41:37.018Z,86.60
2018-09-13T04:44:05.121Z,87.50
2018-09-13T04:46:33.240Z,88.90
2018-09-13T04:49:01.391Z,87.70
2018-09-13T04:51:29.592Z,86.60
2018-09-13T04:53:57.701Z,87.40
2018-09-13T04:56:28.599Z,88.60
2018-09-13T04:58:56.950Z,87.90
2018-09-13T05:01:25.091Z,87.30
2018-09-13T05:03:53.267Z,87.50
2018-09-13T05:06:21.384Z,88.40
2018-09-13T05:08:49.504Z,87.40
2018-09-13T05:11:17.650Z,86.70
2018-09-13T05:13:45.786Z,88.80
2018-09-13T05:16:13.928Z,90.30
2018-09-13T05:18:42.113Z,89.30
2018-09-13T05:21:10.254Z,90.00
2018-09-13T05:23:38.384Z,88.90
2018-09-13T05:26:06.524Z,89.10
2018-09-13T05:28:34.672Z,88.40
2018-09-13T05:31:02.796Z,89.00
2018-09-13T05:33:30.976Z,88.20
2018-09-13T05:35:59.113Z,85.20
2018-09-13T05:38:27.261Z,86.90
2018-09-13T05:40:55.425Z,85.80
2018-09-13T05:43:23.625Z,83.60
2018-09-13T05:45:52.076Z,83.40
2018-09-13T05:48:20.226Z,84.40
2018-09-13T05:50:48.365Z,85.10
2018-09-13T05:53:16.504Z,84.80
2018-09-13T05:55:44.749Z,84.50
2018-09-13T05:58:12.891Z,84.30
2018-09-13T06:00:41.029Z,83.70
2018-09-13T06:03:09.153Z,83.50
2018-09-13T06:05:37.678Z,84.00
2018-09-13T06:08:05.931Z,82.90
2018-09-13T06:10:34.027Z,83.30
2018-09-13T06:13:02.193Z,83.20
2018-09-13T06:15:30.420Z,84.20
2018-09-13T06:17:58.638Z,85.00
2018-09-13T06:20:26.760Z,85.50
2018-09-13T06:22:54.893Z,84.60
2018-09-13T06:25:23.146Z,82.40
2018-09-13T06:27:51.270Z,79.80
2018-09-13T06:30:19.456Z,77.20
2018-09-13T06:32:47.608Z,75.20
2018-09-13T06:35:15.737Z,76.20
2018-09-13T06:37:43.932Z,68.40
2018-09-13T06:40:12.101Z,67.00
2018-09-13T06:42:40.248Z,62.70
2018-09-13T06:45:08.513Z,63.60
2018-09-13T06:47:36.761Z,64.40
2018-09-13T06:50:05.764Z,65.70
2018-09-13T06:52:33.937Z,67.10
2018-09-13T06:55:02.103Z,65.70
2018-09-13T06:57:30.237Z,66.50
2018-09-13T06:59:58.424Z,65.40
2018-09-13T07:02:26.710Z,62.00
2018-09-13T07:04:54.815Z,56.70
2018-09-13T07:07:23.001Z,57.50
2018-09-13T07:09:51.146Z,56.20
2018-09-13T07:12:19.288Z,56.00
2018-09-13T07:14:47.470Z,53.60
2018-09-13T07:17:15.612Z,53.80
2018-09-13T07:19:43.737Z,53.50
2018-09-13T07:22:11.884Z,54.80
2018-09-13T07:24:40.090Z,53.30
2018-09-13T07:27:09.260Z,55.10
2018-09-13T07:29:37.422Z,56.60
2018-09-13T07:32:05.618Z,57.30
2018-09-13T07:34:33.749Z,57.90
2018-09-13T07:37:01.934Z,57.10
2018-09-13T07:39:30.079Z,63.50
2018-09-13T07:41:58.235Z,65.50
2018-09-13T07:44:26.419Z,65.90
2018-09-13T07:46:54.591Z,67.50
2018-09-13T07:49:22.794Z,67.40
2018-09-13T07:51:50.861Z,72.40
2018-09-13T07:54:19.073Z,77.00
2018-09-13T07:56:50.309Z,79.00
2018-09-13T07:59:18.440Z,78.30
2018-09-13T08:01:46.582Z,77.40
2018-09-13T08:04:15.784Z,81.00
2018-09-13T08:06:43.956Z,78.90
2018-09-13T08:09:13.259Z,76.30
2018-09-13T08:11:42.447Z,76.40
2018-09-13T08:14:10.565Z,72.30
2018-09-13T08:16:38.713Z,73.70
2018-09-13T08:19:06.852Z,72.10
2018-09-13T08:21:35.004Z,73.00
2018-09-13T08:24:03.185Z,72.20
2018-09-13T08:26:31.321Z,73.00
2018-09-13T08:28:59.557Z,71.90
2018-09-13T08:31:27.669Z,71.10
2018-09-13T08:33:55.866Z,71.50
2018-09-13T08:36:24.061Z,69.60
2018-09-13T08:38:52.193Z,70.60
2018-09-13T08:41:20.314Z,71.00
2018-09-13T08:43:48.462Z,66.90
2018-09-13T08:46:19.634Z,66.50
2018-09-13T08:48:48.096Z,65.90
2018-09-13T08:51:16.236Z,64.80
2018-09-13T08:53:44.422Z,66.80
2018-09-13T08:56:12.553Z,65.30
2018-09-13T08:58:40.685Z,62.00
2018-09-13T09:01:08.814Z,57.20
2018-09-13T09:03:36.961Z,58.30
2018-09-13T09:06:05.097Z,58.30
2018-09-13T09:08:33.193Z,55.20
2018-09-13T09:11:01.329Z,57.00
2018-09-13T09:13:29.470Z,56.70
2018-09-13T09:15:57.578Z,56.20
2018-09-13T09:18:25.730Z,61.40
2018-09-13T09:20:53.860Z,56.60
2018-09-13T09:23:22.033Z,55.80
2018-09-13T09:25:50.164Z,56.20
2018-09-13T09:28:18.291Z,53.00
2018-09-13T09:30:46.425Z,52.30
2018-09-13T09:33:14.549Z,51.20
2018-09-13T09:35:42.674Z,51.50
2018-09-13T09:38:10.794Z,51.50
2018-09-13T09:40:38.927Z,53.40
2018-09-13T09:43:07.077Z,54.50
2018-09-13T09:45:35.221Z,55.60
2018-09-13T09:48:03.426Z,55.00
2018-09-13T09:50:31.681Z,53.90
2018-09-13T09:52:59.786Z,53.20
2018-09-13T09:55:27.914Z,54.60
2018-09-13T09:57:56.073Z,54.20
2018-09-13T10:00:28.446Z,53.30
2018-09-13T10:02:56.601Z,49.00
2018-09-13T10:05:27.872Z,45.70
2018-09-13T10:07:55.992Z,45.70
2018-09-13T10:10:24.128Z,50.20
2018-09-13T10:13:02.446Z,51.70
2018-09-13T10:18:30.574Z,50.80
2018-09-13T10:21:04.097Z,52.40
2018-09-13T10:23:37.932Z,49.60
2018-09-13T10:26:11.246Z,48.00
2018-09-13T10:28:44.660Z,49.80
2018-09-13T10:31:18.224Z,47.90
2018-09-13T10:33:51.597Z,50.50
2018-09-13T10:36:25.137Z,52.20
2018-09-13T10:38:58.514Z,52.90
2018-09-13T10:41:32.131Z,55.70
2018-09-13T10:44:05.601Z,54.50
2018-09-13T10:46:34.743Z,55.70
2018-09-13T10:49:08.368Z,55.10
2018-09-13T10:51:41.909Z,56.90
2018-09-13T10:54:18.264Z,57.00
2018-09-13T10:56:46.308Z,60.00
2018-09-13T10:59:14.493Z,62.30
2018-09-13T11:01:42.553Z,60.50
2018-09-13T11:04:10.745Z,62.80
2018-09-13T11:06:38.780Z,63.50
2018-09-13T11:09:07.210Z,64.70
2018-09-13T11:11:35.324Z,67.70
2018-09-13T11:15:07.387Z,68.90
2018-09-13T11:17:35.510Z,68.60
2018-09-13T11:20:03.667Z,69.90
2018-09-13T11:22:31.770Z,67.40
2018-09-13T11:24:59.892Z,68.30
2018-09-13T11:27:28.019Z,69.50
2018-09-13T11:29:56.127Z,74.20
2018-09-13T11:32:24.274Z,72.60
2018-09-13T11:34:52.393Z,65.50
2018-09-13T11:37:20.561Z,67.40
2018-09-13T11:39:48.727Z,69.90
2018-09-13T11:42:16.813Z,72.70
2018-09-13T11:44:44.921Z,64.30
2018-09-13T11:47:13.050Z,64.60
2018-09-13T11:49:41.148Z,63.20
2018-09-13T11:52:09.275Z,49.60
2018-09-13T11:54:37.388Z,49.10
2018-09-13T11:57:05.549Z,48.40
2018-09-13T11:59:33.716Z,44.90
2018-09-13T12:02:01.814Z,43.90
2018-09-13T12:04:29.897Z,40.80
2018-09-13T12:06:58.014Z,42.60
2018-09-13T12:09:26.159Z,40.70
2018-09-13T12:11:54.282Z,36.00
2018-09-13T12:14:22.369Z,37.70
2018-09-13T12:16:50.485Z,39.20
2018-09-13T12:19:18.619Z,35.20
2018-09-13T12:21:46.712Z,35.50
2018-09-13T12:24:14.816Z,36.10
2018-09-13T12:26:42.941Z,32.70
2018-09-13T12:29:11.046Z,30.70
2018-09-13T12:31:39.158Z,33.80
2018-09-13T12:34:07.265Z,30.90
2018-09-13T12:36:35.385Z,29.90
2018-09-13T12:39:04.928Z,30.60
2018-09-13T12:41:33.041Z,34.10
2018-09-13T12:44:01.145Z,32.80
2018-09-13T12:46:29.278Z,34.10
2018-09-13T12:48:57.372Z,33.90
2018-09-13T12:51:25.496Z,34.80
2018-09-13T12:53:53.604Z,34.00
2018-09-13T12:56:21.738Z,32.30
2018-09-13T12:58:49.977Z,32.40
2018-09-13T13:01:18.082Z,33.70
2018-09-13T13:03:46.190Z,34.80
2018-09-13T13:06:14.299Z,36.20
2018-09-13T13:08:42.428Z,34.20
2018-09-13T13:11:10.542Z,34.60
2018-09-13T13:13:38.677Z,33.70
2018-09-13T13:16:06.777Z,35.00
2018-09-13T13:18:34.905Z,35.70
2018-09-13T13:21:02.992Z,36.60
2018-09-13T13:23:31.106Z,37.00
2018-09-13T13:25:59.212Z,36.70
2018-09-13T13:28:27.322Z,37.70
2018-09-13T13:30:55.430Z,39.80
2018-09-13T13:33:23.550Z,41.00
2018-09-13T13:35:51.648Z,43.40
2018-09-13T13:38:19.826Z,46.50
2018-09-13T13:40:47.949Z,43.40
2018-09-13T13:43:16.089Z,46.10
2018-09-13T13:45:44.203Z,48.80
2018-09-13T13:48:12.321Z,51.30
2018-09-13T13:50:40.426Z,48.90
2018-09-13T13:53:08.552Z,46.60
2018-09-13T13:55:36.661Z,46.00
2018-09-13T13:58:04.904Z,47.80
2018-09-13T14:00:33.001Z,52.60
2018-09-13T14:03:01.117Z,51.40
2018-09-13T14:05:29.229Z,49.80
2018-09-13T14:07:57.345Z,53.10
2018-09-13T14:10:25.481Z,55.30
2018-09-13T14:12:53.597Z,60.70
2018-09-13T14:15:21.729Z,59.80
2018-09-13T14:17:49.833Z,62.80
2018-09-13T14:20:18.343Z,63.60
2018-09-13T14:22:46.464Z,71.50
2018-09-13T14:25:14.580Z,69.80
2018-09-13T14:27:42.685Z,69.60
2018-09-13T14:30:10.809Z,66.70
2018-09-13T14:32:38.944Z,69.90
2018-09-13T14:35:07.177Z,67.30
2018-09-13T14:37:35.291Z,66.40
2018-09-13T14:40:03.425Z,67.90
2018-09-13T14:42:31.525Z,67.10
2018-09-13T14:44:59.637Z,69.60
2018-09-13T14:47:27.828Z,68.90
2018-09-13T14:49:55.884Z,67.80
2018-09-13T14:52:23.992Z,66.40
2018-09-13T14:54:52.104Z,67.90
2018-09-13T14:57:20.245Z,72.00
2018-09-13T14:59:48.354Z,75.00
2018-09-13T15:02:16.457Z,73.60
2018-09-13T15:04:44.582Z,74.50
2018-09-13T15:07:12.723Z,74.90
2018-09-13T15:09:40.829Z,76.20
2018-09-13T15:12:08.941Z,78.70
2018-09-13T15:14:37.064Z,84.60
2018-09-13T15:17:05.311Z,89.60
2018-09-13T15:19:33.631Z,87.60
2018-09-13T15:22:01.741Z,88.70
2018-09-13T15:24:29.912Z,87.70
2018-09-13T15:26:58.049Z,89.80
2018-09-13T15:29:27.217Z,92.30
2018-09-13T15:31:55.407Z,91.10
2018-09-13T15:34:23.557Z,86.80
2018-09-13T15:36:51.796Z,86.00
2018-09-13T15:39:19.962Z,89.30
2018-09-13T15:41:48.129Z,88.20
2018-09-13T15:44:16.265Z,91.30
2018-09-13T15:46:44.414Z,87.20
2018-09-13T15:49:12.537Z,87.70
2018-09-13T15:51:40.652Z,89.20
2018-09-13T15:54:08.787Z,91.40
2018-09-13T15:56:36.913Z,91.10
2018-09-13T15:59:05.093Z,92.70
2018-09-13T16:01:33.257Z,93.30
2018-09-13T16:04:01.371Z,92.60
2018-09-13T16:06:29.525Z,92.40
2018-09-13T16:08:57.689Z,91.90
2018-09-13T16:11:25.860Z,91.20
2018-09-13T16:13:54.001Z,91.90
2018-09-13T16:16:22.184Z,93.40
2018-09-13T16:18:53.905Z,95.90
2018-09-13T16:58:07.541Z,97.60
2018-09-13T17:00:35.701Z,97.50
2018-09-13T17:03:04.836Z,97.50
2018-09-13T17:05:32.963Z,98.00
2018-09-13T17:08:01.097Z,98.30
2018-09-13T17:10:29.221Z,99.80
2018-09-13T17:12:57.354Z,99.90
2018-09-13T17:15:25.482Z,99.90
2018-09-13T17:17:53.613Z,99.90
2018-09-13T17:20:21.803Z,99.90
2018-09-13T17:22:49.876Z,99.90
2018-09-13T17:25:17.984Z,99.90
2018-09-13T17:27:46.173Z,99.90
2018-09-13T17:30:14.320Z,99.90
2018-09-13T17:32:42.448Z,99.90
2018-09-13T17:35:10.574Z,99.90
2018-09-13T17:37:38.709Z,99.90
2018-09-13T17:40:06.833Z,99.90
2018-09-13T17:42:35.005Z,99.90
2018-09-13T17:45:03.166Z,99.90
2018-09-13T17:47:31.305Z,99.90
2018-09-13T17:49:59.454Z,99.90
2018-09-13T17:52:27.610Z,99.90
2018-09-13T17:54:55.722Z,99.90
2018-09-13T17:57:23.844Z,99.90
2018-09-13T17:59:51.981Z,99.90
2018-09-13T18:02:20.110Z,99.90
2018-09-13T18:04:48.279Z,99.90
2018-09-13T18:07:16.409Z,99.90
2018-09-13T18:09:44.538Z,99.90
2018-09-13T18:12:12.675Z,99.90
2018-09-13T18:14:40.790Z,99.90
2018-09-13T18:17:08.913Z,99.90
2018-09-13T18:19:37.042Z,99.90
2018-09-13T18:22:05.238Z,99.90
2018-09-13T18:24:33.368Z,99.90
2018-09-13T18:27:01.501Z,99.90
2018-09-13T18:29:29.654Z,99.90
2018-09-13T18:31:57.781Z,99.90
2018-09-13T18:34:26.004Z,99.90
2018-09-13T18:36:54.172Z,99.90
2018-09-13T18:39:22.327Z,99.90
2018-09-13T18:41:50.446Z,99.90
2018-09-13T18:44:18.603Z,99.90
2018-09-13T18:46:46.708Z,99.90
2018-09-13T18:49:14.844Z,99.90
2018-09-13T18:51:42.962Z,99.90
2018-09-13T18:54:11.149Z,99.90
2018-09-13T18:56:39.209Z,99.90
2018-09-13T18:59:07.341Z,99.90
2018-09-13T19:01:35.454Z,99.90
2018-09-13T19:04:03.582Z,99.90
2018-09-13T19:06:31.702Z,99.90
2018-09-13T19:08:59.820Z,99.90
2018-09-13T19:11:27.991Z,99.90
2018-09-13T19:13:56.085Z,99.90
2018-09-13T19:16:24.309Z,99.90
2018-09-13T19:18:52.437Z,99.90
2018-09-13T19:21:20.553Z,99.90
2018-09-13T19:23:48.711Z,99.90
2018-09-13T19:26:16.841Z,99.90
2018-09-13T19:28:44.976Z,99.90
2018-09-13T19:31:13.106Z,99.90
2018-09-13T19:33:41.339Z,99.90
2018-09-13T19:36:09.477Z,99.90
2018-09-13T19:38:37.626Z,99.90
2018-09-13T19:41:05.745Z,99.90
2018-09-13T19:43:33.942Z,99.90
2018-09-13T19:46:02.388Z,99.90
2018-09-13T19:48:30.512Z,99.90
2018-09-13T19:50:58.774Z,99.90
2018-09-13T19:53:26.953Z,99.90
2018-09-13T19:55:55.229Z,99.90
2018-09-13T19:58:23.350Z,99.90
2018-09-13T20:00:51.660Z,99.90
2018-09-13T20:03:19.837Z,99.90
2018-09-13T20:05:47.958Z,99.90
2018-09-13T20:08:16.138Z,99.90
2018-09-13T20:10:44.292Z,99.90
2018-09-13T20:13:12.378Z,99.90
2018-09-13T20:15:40.488Z,99.90
2018-09-13T20:18:08.659Z,99.90
2018-09-13T20:20:36.701Z,99.90
2018-09-13T20:23:04.813Z,99.90
2018-09-13T20:25:32.917Z,99.90
2018-09-13T20:28:01.018Z,99.90
2018-09-13T20:30:29.179Z,99.90
2018-09-13T20:32:57.342Z,99.90
2018-09-13T20:35:25.407Z,99.90
2018-09-13T20:37:53.509Z,99.90
2018-09-13T20:40:21.634Z,99.90
2018-09-13T20:42:49.796Z,99.90
2018-09-13T20:45:17.853Z,99.90
2018-09-13T20:47:45.965Z,99.90
2018-09-13T20:50:14.093Z,99.90
2018-09-13T20:52:42.193Z,99.90
2018-09-13T20:55:10.309Z,99.90
2018-09-13T20:57:38.413Z,99.90
2018-09-13T21:00:06.560Z,99.90
2018-09-13T21:02:34.685Z,99.90
2018-09-13T21:05:02.795Z,99.90
2018-09-13T21:07:30.941Z,99.90
2018-09-13T21:09:59.073Z,99.90
2018-09-13T21:12:27.193Z,99.90
2018-09-13T21:14:55.325Z,99.90
2018-09-13T21:17:23.445Z,99.90
2018-09-13T21:19:51.574Z,99.90
2018-09-13T21:22:19.688Z,99.90
2018-09-13T21:24:47.820Z,99.90
2018-09-13T21:27:15.940Z,99.90
2018-09-13T21:29:44.081Z,99.90
2018-09-13T21:32:12.194Z,99.90
2018-09-13T21:34:40.318Z,99.90
2018-09-13T21:37:08.437Z,99.90
2018-09-13T21:39:36.560Z,99.90
2018-09-13T21:42:04.689Z,99.90
2018-09-13T21:44:32.918Z,99.90
2018-09-13T21:47:00.933Z,99.90
2018-09-13T21:49:29.066Z,99.90
2018-09-13T21:51:57.182Z,99.90
2018-09-13T21:54:25.293Z,99.90
2018-09-13T21:56:53.421Z,99.90
2018-09-13T21:59:21.537Z,99.90
2018-09-13T22:01:49.669Z,99.90
2018-09-13T22:04:17.785Z,99.90
2018-09-13T22:06:45.910Z,99.90
2018-09-13T22:09:15.951Z,99.90
2018-09-13T22:11:44.300Z,99.90
2018-09-13T22:14:12.487Z,99.90
2018-09-13T22:16:40.584Z,99.90
2018-09-13T22:19:08.686Z,99.90
2018-09-13T22:21:36.862Z,99.90
2018-09-13T22:24:05.412Z,99.90
2018-09-13T22:26:34.448Z,99.90
2018-09-13T22:29:02.762Z,99.90
2018-09-13T22:31:30.833Z,99.90
2018-09-13T22:33:58.944Z,99.90
2018-09-13T22:36:27.121Z,99.90
2018-09-13T22:38:55.153Z,99.90
2018-09-13T22:41:23.370Z,99.90
2018-09-13T22:43:52.449Z,99.90
2018-09-13T22:46:22.060Z,99.90
2018-09-13T22:48:50.268Z,99.90
2018-09-13T22:51:18.929Z,99.90
2018-09-13T22:53:47.147Z,99.90
2018-09-13T22:56:15.877Z,99.90
2018-09-13T22:58:44.022Z,99.90
2018-09-13T23:43:56.664Z,99.90
2018-09-13T23:46:24.893Z,99.90
2018-09-13T23:48:53.047Z,99.90
2018-09-13T23:51:21.202Z,99.90
2018-09-13T23:53:49.357Z,99.90
2018-09-13T23:56:17.522Z,99.90
2018-09-13T23:58:45.733Z,99.90
